sensor_id;sensor_type;location;lat;lon;timestamp;P1;durP1;ratioP1;P2;durP2;ratioP2
787;SDS011;16074;42.708;23.312;2022-12-29T00:01:11;19.73;;;16.27;;
787;SDS011;16074;42.708;23.312;2022-12-29T00:03:39;20.45;;;16.42;;
787;SDS011;16074;42.708;23.312;2022-12-29T00:06:08;21.65;;;15.10;;
787;SDS011;16074;42.708;23.312;2022-12-29T00:08:36;25.90;;;15.32;;
787;SDS011;16074;42.708;23.312;2022-12-29T00:11:07;19.60;;;15.77;;
787;SDS011;16074;42.708;23.312;2022-12-29T00:13:37;20.80;;;16.45;;
787;SDS011;16074;42.708;23.312;2022-12-29T00:16:25;20.83;;;16.75;;
787;SDS011;16074;42.708;23.312;2022-12-29T00:18:54;19.55;;;17.45;;
787;SDS011;16074;42.708;23.312;2022-12-29T00:21:23;22.40;;;19.05;;
787;SDS011;16074;42.708;23.312;2022-12-29T00:24:09;22.88;;;18.08;;
787;SDS011;16074;42.708;23.312;2022-12-29T00:26:58;20.67;;;18.35;;
787;SDS011;16074;42.708;23.312;2022-12-29T00:29:55;21.13;;;17.90;;
787;SDS011;16074;42.708;23.312;2022-12-29T00:32:42;22.75;;;18.25;;
787;SDS011;16074;42.708;23.312;2022-12-29T00:35:28;21.73;;;18.27;;
787;SDS011;16074;42.708;23.312;2022-12-29T00:38:01;24.52;;;17.90;;
787;SDS011;16074;42.708;23.312;2022-12-29T00:40:51;25.33;;;19.65;;
787;SDS011;16074;42.708;23.312;2022-12-29T00:43:36;21.33;;;17.92;;
787;SDS011;16074;42.708;23.312;2022-12-29T00:46:22;24.98;;;18.75;;
787;SDS011;16074;42.708;23.312;2022-12-29T00:48:52;27.90;;;21.08;;
787;SDS011;16074;42.708;23.312;2022-12-29T00:51:37;26.83;;;20.15;;
787;SDS011;16074;42.708;23.312;2022-12-29T00:54:06;27.42;;;21.75;;
787;SDS011;16074;42.708;23.312;2022-12-29T00:56:34;25.10;;;21.15;;
787;SDS011;16074;42.708;23.312;2022-12-29T00:59:03;25.58;;;19.15;;
787;SDS011;16074;42.708;23.312;2022-12-29T01:01:34;21.63;;;18.83;;
787;SDS011;16074;42.708;23.312;2022-12-29T01:04:05;26.60;;;20.33;;
787;SDS011;16074;42.708;23.312;2022-12-29T01:06:35;25.73;;;19.48;;
787;SDS011;16074;42.708;23.312;2022-12-29T01:09:04;25.05;;;18.42;;
787;SDS011;16074;42.708;23.312;2022-12-29T01:11:51;25.95;;;18.55;;
787;SDS011;16074;42.708;23.312;2022-12-29T01:14:20;20.73;;;17.52;;
787;SDS011;16074;42.708;23.312;2022-12-29T01:16:48;23.17;;;18.38;;
787;SDS011;16074;42.708;23.312;2022-12-29T01:19:18;20.88;;;16.27;;
787;SDS011;16074;42.708;23.312;2022-12-29T01:21:48;19.83;;;17.58;;
787;SDS011;16074;42.708;23.312;2022-12-29T01:24:18;23.88;;;18.65;;
787;SDS011;16074;42.708;23.312;2022-12-29T01:26:48;18.00;;;15.90;;
787;SDS011;16074;42.708;23.312;2022-12-29T01:29:16;21.83;;;17.90;;
787;SDS011;16074;42.708;23.312;2022-12-29T01:31:45;18.77;;;16.73;;
787;SDS011;16074;42.708;23.312;2022-12-29T01:34:13;21.63;;;16.50;;
787;SDS011;16074;42.708;23.312;2022-12-29T01:36:43;22.25;;;17.00;;
787;SDS011;16074;42.708;23.312;2022-12-29T01:39:12;20.25;;;15.98;;
787;SDS011;16074;42.708;23.312;2022-12-29T01:41:41;19.80;;;15.98;;
787;SDS011;16074;42.708;23.312;2022-12-29T01:47:11;19.15;;;16.65;;
787;SDS011;16074;42.708;23.312;2022-12-29T01:49:40;19.85;;;16.20;;
787;SDS011;16074;42.708;23.312;2022-12-29T01:52:10;18.73;;;14.98;;
787;SDS011;16074;42.708;23.312;2022-12-29T01:54:39;20.83;;;16.55;;
787;SDS011;16074;42.708;23.312;2022-12-29T01:57:12;16.45;;;14.40;;
787;SDS011;16074;42.708;23.312;2022-12-29T01:59:45;18.17;;;15.52;;
787;SDS011;16074;42.708;23.312;2022-12-29T02:02:19;23.35;;;17.30;;
787;SDS011;16074;42.708;23.312;2022-12-29T02:04:47;22.80;;;16.58;;
787;SDS011;16074;42.708;23.312;2022-12-29T02:07:18;22.48;;;16.50;;
787;SDS011;16074;42.708;23.312;2022-12-29T02:09:49;20.50;;;15.50;;
787;SDS011;16074;42.708;23.312;2022-12-29T02:12:20;21.10;;;17.15;;
787;SDS011;16074;42.708;23.312;2022-12-29T02:14:51;19.85;;;16.88;;
787;SDS011;16074;42.708;23.312;2022-12-29T02:17:26;21.73;;;18.23;;
787;SDS011;16074;42.708;23.312;2022-12-29T02:20:14;21.98;;;17.58;;
787;SDS011;16074;42.708;23.312;2022-12-29T02:23:10;19.65;;;17.10;;
787;SDS011;16074;42.708;23.312;2022-12-29T02:26:15;22.27;;;15.80;;
787;SDS011;16074;42.708;23.312;2022-12-29T02:32:05;20.83;;;15.95;;
787;SDS011;16074;42.708;23.312;2022-12-29T02:34:42;20.25;;;15.80;;
787;SDS011;16074;42.708;23.312;2022-12-29T02:37:19;18.25;;;16.10;;
787;SDS011;16074;42.708;23.312;2022-12-29T02:39:56;21.70;;;16.02;;
787;SDS011;16074;42.708;23.312;2022-12-29T02:42:33;20.35;;;16.40;;
787;SDS011;16074;42.708;23.312;2022-12-29T02:45:05;22.33;;;17.10;;
787;SDS011;16074;42.708;23.312;2022-12-29T02:47:43;21.20;;;17.15;;
787;SDS011;16074;42.708;23.312;2022-12-29T02:50:19;18.00;;;15.70;;
787;SDS011;16074;42.708;23.312;2022-12-29T02:52:51;19.25;;;16.20;;
787;SDS011;16074;42.708;23.312;2022-12-29T02:55:25;19.50;;;16.45;;
787;SDS011;16074;42.708;23.312;2022-12-29T02:58:05;20.92;;;16.85;;
787;SDS011;16074;42.708;23.312;2022-12-29T03:00:46;21.25;;;16.73;;
787;SDS011;16074;42.708;23.312;2022-12-29T03:03:28;21.73;;;17.30;;
787;SDS011;16074;42.708;23.312;2022-12-29T03:06:15;20.27;;;16.65;;
787;SDS011;16074;42.708;23.312;2022-12-29T03:08:57;20.42;;;17.08;;
787;SDS011;16074;42.708;23.312;2022-12-29T03:11:45;21.05;;;17.13;;
787;SDS011;16074;42.708;23.312;2022-12-29T03:14:40;19.50;;;15.90;;
787;SDS011;16074;42.708;23.312;2022-12-29T03:17:38;24.67;;;17.20;;
787;SDS011;16074;42.708;23.312;2022-12-29T03:20:15;20.45;;;17.58;;
787;SDS011;16074;42.708;23.312;2022-12-29T03:22:51;22.60;;;18.48;;
787;SDS011;16074;42.708;23.312;2022-12-29T03:25:23;20.98;;;17.17;;
787;SDS011;16074;42.708;23.312;2022-12-29T03:27:56;20.30;;;17.35;;
787;SDS011;16074;42.708;23.312;2022-12-29T03:30:32;25.15;;;18.13;;
787;SDS011;16074;42.708;23.312;2022-12-29T03:33:04;21.98;;;16.85;;
787;SDS011;16074;42.708;23.312;2022-12-29T03:35:40;19.25;;;16.33;;
787;SDS011;16074;42.708;23.312;2022-12-29T03:38:13;25.35;;;18.50;;
787;SDS011;16074;42.708;23.312;2022-12-29T03:40:47;19.42;;;15.82;;
787;SDS011;16074;42.708;23.312;2022-12-29T03:43:22;19.98;;;17.73;;
787;SDS011;16074;42.708;23.312;2022-12-29T03:45:50;20.70;;;18.05;;
787;SDS011;16074;42.708;23.312;2022-12-29T03:48:19;19.90;;;16.33;;
787;SDS011;16074;42.708;23.312;2022-12-29T03:50:50;24.10;;;18.27;;
787;SDS011;16074;42.708;23.312;2022-12-29T03:53:19;20.20;;;17.30;;
787;SDS011;16074;42.708;23.312;2022-12-29T03:55:48;23.25;;;16.90;;
787;SDS011;16074;42.708;23.312;2022-12-29T03:58:16;21.17;;;15.95;;
787;SDS011;16074;42.708;23.312;2022-12-29T04:01:07;22.45;;;17.20;;
787;SDS011;16074;42.708;23.312;2022-12-29T04:03:37;22.60;;;18.08;;
787;SDS011;16074;42.708;23.312;2022-12-29T04:06:08;23.92;;;17.40;;
787;SDS011;16074;42.708;23.312;2022-12-29T04:08:59;23.83;;;18.80;;
787;SDS011;16074;42.708;23.312;2022-12-29T04:11:31;28.17;;;19.80;;
787;SDS011;16074;42.708;23.312;2022-12-29T04:14:02;27.92;;;19.50;;
787;SDS011;16074;42.708;23.312;2022-12-29T04:16:32;23.70;;;19.00;;
787;SDS011;16074;42.708;23.312;2022-12-29T04:19:04;30.15;;;19.15;;
787;SDS011;16074;42.708;23.312;2022-12-29T04:21:35;24.83;;;19.83;;
787;SDS011;16074;42.708;23.312;2022-12-29T04:24:04;33.05;;;21.13;;
787;SDS011;16074;42.708;23.312;2022-12-29T04:26:38;24.58;;;19.73;;
787;SDS011;16074;42.708;23.312;2022-12-29T04:29:23;33.25;;;21.13;;
787;SDS011;16074;42.708;23.312;2022-12-29T04:32:15;25.85;;;20.30;;
787;SDS011;16074;42.708;23.312;2022-12-29T04:34:48;23.08;;;20.45;;
787;SDS011;16074;42.708;23.312;2022-12-29T04:37:19;23.77;;;20.30;;
787;SDS011;16074;42.708;23.312;2022-12-29T04:39:47;25.25;;;19.88;;
787;SDS011;16074;42.708;23.312;2022-12-29T04:42:16;28.10;;;20.00;;
787;SDS011;16074;42.708;23.312;2022-12-29T04:44:45;27.25;;;21.10;;
787;SDS011;16074;42.708;23.312;2022-12-29T04:47:43;24.60;;;18.88;;
787;SDS011;16074;42.708;23.312;2022-12-29T04:50:38;28.10;;;21.50;;
787;SDS011;16074;42.708;23.312;2022-12-29T04:53:19;25.95;;;19.40;;
787;SDS011;16074;42.708;23.312;2022-12-29T04:55:48;26.42;;;21.23;;
787;SDS011;16074;42.708;23.312;2022-12-29T04:58:18;28.48;;;21.27;;
787;SDS011;16074;42.708;23.312;2022-12-29T05:00:50;27.88;;;19.85;;
787;SDS011;16074;42.708;23.312;2022-12-29T05:03:22;30.25;;;20.83;;
787;SDS011;16074;42.708;23.312;2022-12-29T05:05:52;30.92;;;21.65;;
787;SDS011;16074;42.708;23.312;2022-12-29T05:08:22;39.85;;;26.65;;
787;SDS011;16074;42.708;23.312;2022-12-29T05:10:56;48.65;;;29.48;;
787;SDS011;16074;42.708;23.312;2022-12-29T05:13:25;45.92;;;28.33;;
787;SDS011;16074;42.708;23.312;2022-12-29T05:15:54;34.58;;;23.70;;
787;SDS011;16074;42.708;23.312;2022-12-29T05:18:23;31.70;;;22.73;;
787;SDS011;16074;42.708;23.312;2022-12-29T05:20:51;30.63;;;21.90;;
787;SDS011;16074;42.708;23.312;2022-12-29T05:23:23;31.92;;;21.58;;
787;SDS011;16074;42.708;23.312;2022-12-29T05:25:58;31.50;;;24.08;;
787;SDS011;16074;42.708;23.312;2022-12-29T05:28:47;30.55;;;23.17;;
787;SDS011;16074;42.708;23.312;2022-12-29T05:31:18;29.63;;;22.90;;
787;SDS011;16074;42.708;23.312;2022-12-29T05:33:47;29.52;;;25.25;;
787;SDS011;16074;42.708;23.312;2022-12-29T05:36:16;25.88;;;20.38;;
787;SDS011;16074;42.708;23.312;2022-12-29T05:38:53;29.65;;;22.17;;
787;SDS011;16074;42.708;23.312;2022-12-29T05:41:22;31.88;;;23.10;;
787;SDS011;16074;42.708;23.312;2022-12-29T05:44:05;27.52;;;20.75;;
787;SDS011;16074;42.708;23.312;2022-12-29T05:47:09;29.33;;;22.05;;
787;SDS011;16074;42.708;23.312;2022-12-29T05:49:56;29.35;;;23.38;;
787;SDS011;16074;42.708;23.312;2022-12-29T05:52:43;28.27;;;20.23;;
787;SDS011;16074;42.708;23.312;2022-12-29T05:55:13;25.48;;;20.65;;
787;SDS011;16074;42.708;23.312;2022-12-29T05:57:43;22.42;;;20.05;;
787;SDS011;16074;42.708;23.312;2022-12-29T06:00:14;24.15;;;20.20;;
787;SDS011;16074;42.708;23.312;2022-12-29T06:02:45;25.63;;;19.83;;
787;SDS011;16074;42.708;23.312;2022-12-29T06:05:16;22.20;;;19.58;;
787;SDS011;16074;42.708;23.312;2022-12-29T06:07:44;23.35;;;19.25;;
787;SDS011;16074;42.708;23.312;2022-12-29T06:10:16;22.10;;;17.95;;
787;SDS011;16074;42.708;23.312;2022-12-29T06:13:01;22.70;;;16.63;;
787;SDS011;16074;42.708;23.312;2022-12-29T06:15:35;19.52;;;17.00;;
787;SDS011;16074;42.708;23.312;2022-12-29T06:18:06;22.85;;;18.05;;
787;SDS011;16074;42.708;23.312;2022-12-29T06:20:45;20.85;;;17.00;;
787;SDS011;16074;42.708;23.312;2022-12-29T06:23:15;19.75;;;17.58;;
787;SDS011;16074;42.708;23.312;2022-12-29T06:25:47;22.42;;;19.48;;
787;SDS011;16074;42.708;23.312;2022-12-29T06:28:16;20.90;;;18.55;;
787;SDS011;16074;42.708;23.312;2022-12-29T06:30:44;24.17;;;20.27;;
787;SDS011;16074;42.708;23.312;2022-12-29T06:33:13;23.00;;;20.13;;
787;SDS011;16074;42.708;23.312;2022-12-29T06:35:44;21.13;;;18.67;;
787;SDS011;16074;42.708;23.312;2022-12-29T06:38:13;23.38;;;19.05;;
787;SDS011;16074;42.708;23.312;2022-12-29T06:40:42;25.88;;;19.77;;
787;SDS011;16074;42.708;23.312;2022-12-29T06:43:31;27.42;;;20.90;;
787;SDS011;16074;42.708;23.312;2022-12-29T06:46:07;27.00;;;18.83;;
787;SDS011;16074;42.708;23.312;2022-12-29T06:48:36;24.77;;;20.00;;
787;SDS011;16074;42.708;23.312;2022-12-29T06:51:04;21.52;;;19.40;;
787;SDS011;16074;42.708;23.312;2022-12-29T06:53:32;25.73;;;21.13;;
787;SDS011;16074;42.708;23.312;2022-12-29T06:56:00;25.17;;;20.90;;
787;SDS011;16074;42.708;23.312;2022-12-29T06:58:30;28.58;;;21.95;;
787;SDS011;16074;42.708;23.312;2022-12-29T07:00:58;26.98;;;21.60;;
787;SDS011;16074;42.708;23.312;2022-12-29T07:03:27;26.40;;;20.60;;
787;SDS011;16074;42.708;23.312;2022-12-29T07:05:55;28.85;;;22.75;;
787;SDS011;16074;42.708;23.312;2022-12-29T07:08:24;28.30;;;22.67;;
787;SDS011;16074;42.708;23.312;2022-12-29T07:10:52;27.00;;;22.67;;
787;SDS011;16074;42.708;23.312;2022-12-29T07:13:21;30.55;;;22.45;;
787;SDS011;16074;42.708;23.312;2022-12-29T07:15:50;25.02;;;20.75;;
787;SDS011;16074;42.708;23.312;2022-12-29T07:18:19;28.02;;;22.33;;
787;SDS011;16074;42.708;23.312;2022-12-29T07:20:47;24.77;;;21.77;;
787;SDS011;16074;42.708;23.312;2022-12-29T07:23:15;27.33;;;19.90;;
787;SDS011;16074;42.708;23.312;2022-12-29T07:25:44;24.15;;;21.48;;
787;SDS011;16074;42.708;23.312;2022-12-29T07:28:13;23.50;;;19.48;;
787;SDS011;16074;42.708;23.312;2022-12-29T07:30:42;23.42;;;19.33;;
787;SDS011;16074;42.708;23.312;2022-12-29T07:33:14;25.65;;;19.58;;
787;SDS011;16074;42.708;23.312;2022-12-29T07:35:43;26.17;;;21.00;;
787;SDS011;16074;42.708;23.312;2022-12-29T07:38:11;26.80;;;20.73;;
787;SDS011;16074;42.708;23.312;2022-12-29T07:40:39;23.73;;;18.85;;
787;SDS011;16074;42.708;23.312;2022-12-29T07:43:08;25.08;;;19.02;;
787;SDS011;16074;42.708;23.312;2022-12-29T07:45:42;21.63;;;19.10;;
787;SDS011;16074;42.708;23.312;2022-12-29T07:48:11;26.15;;;19.35;;
787;SDS011;16074;42.708;23.312;2022-12-29T07:50:40;24.15;;;20.60;;
787;SDS011;16074;42.708;23.312;2022-12-29T07:53:08;23.15;;;18.10;;
787;SDS011;16074;42.708;23.312;2022-12-29T07:55:36;25.27;;;20.60;;
787;SDS011;16074;42.708;23.312;2022-12-29T07:58:05;22.15;;;18.20;;
787;SDS011;16074;42.708;23.312;2022-12-29T08:00:33;25.25;;;19.95;;
787;SDS011;16074;42.708;23.312;2022-12-29T08:03:02;23.60;;;18.00;;
787;SDS011;16074;42.708;23.312;2022-12-29T08:05:30;23.60;;;20.77;;
787;SDS011;16074;42.708;23.312;2022-12-29T08:08:01;23.08;;;19.23;;
787;SDS011;16074;42.708;23.312;2022-12-29T08:10:29;22.92;;;20.05;;
787;SDS011;16074;42.708;23.312;2022-12-29T08:12:57;23.60;;;19.30;;
787;SDS011;16074;42.708;23.312;2022-12-29T08:15:25;25.13;;;19.45;;
787;SDS011;16074;42.708;23.312;2022-12-29T08:17:58;21.25;;;18.85;;
787;SDS011;16074;42.708;23.312;2022-12-29T08:20:26;28.58;;;21.60;;
787;SDS011;16074;42.708;23.312;2022-12-29T08:22:54;24.23;;;21.63;;
787;SDS011;16074;42.708;23.312;2022-12-29T08:25:24;22.90;;;19.77;;
787;SDS011;16074;42.708;23.312;2022-12-29T08:27:52;23.75;;;20.42;;
787;SDS011;16074;42.708;23.312;2022-12-29T08:30:20;28.25;;;20.92;;
787;SDS011;16074;42.708;23.312;2022-12-29T08:32:49;22.40;;;20.05;;
787;SDS011;16074;42.708;23.312;2022-12-29T08:35:17;23.33;;;19.55;;
787;SDS011;16074;42.708;23.312;2022-12-29T08:37:46;25.17;;;19.40;;
787;SDS011;16074;42.708;23.312;2022-12-29T08:40:14;24.23;;;18.55;;
787;SDS011;16074;42.708;23.312;2022-12-29T08:42:44;23.98;;;20.50;;
787;SDS011;16074;42.708;23.312;2022-12-29T08:45:12;25.52;;;20.27;;
787;SDS011;16074;42.708;23.312;2022-12-29T08:47:40;22.15;;;19.00;;
787;SDS011;16074;42.708;23.312;2022-12-29T08:50:09;19.98;;;17.95;;
787;SDS011;16074;42.708;23.312;2022-12-29T08:52:37;22.30;;;19.95;;
787;SDS011;16074;42.708;23.312;2022-12-29T08:55:06;28.23;;;21.58;;
787;SDS011;16074;42.708;23.312;2022-12-29T08:57:35;24.55;;;20.25;;
787;SDS011;16074;42.708;23.312;2022-12-29T09:00:11;23.27;;;19.25;;
787;SDS011;16074;42.708;23.312;2022-12-29T09:02:41;24.42;;;21.85;;
787;SDS011;16074;42.708;23.312;2022-12-29T09:05:10;27.95;;;20.33;;
787;SDS011;16074;42.708;23.312;2022-12-29T09:07:38;29.00;;;23.27;;
787;SDS011;16074;42.708;23.312;2022-12-29T09:10:07;28.83;;;21.00;;
787;SDS011;16074;42.708;23.312;2022-12-29T09:12:36;27.70;;;20.77;;
787;SDS011;16074;42.708;23.312;2022-12-29T09:15:05;25.75;;;22.23;;
787;SDS011;16074;42.708;23.312;2022-12-29T09:17:35;26.05;;;23.15;;
787;SDS011;16074;42.708;23.312;2022-12-29T09:20:13;24.60;;;21.55;;
787;SDS011;16074;42.708;23.312;2022-12-29T09:22:42;23.73;;;20.10;;
787;SDS011;16074;42.708;23.312;2022-12-29T09:25:12;28.57;;;21.20;;
787;SDS011;16074;42.708;23.312;2022-12-29T09:27:41;23.20;;;20.40;;
787;SDS011;16074;42.708;23.312;2022-12-29T09:30:11;27.80;;;21.43;;
787;SDS011;16074;42.708;23.312;2022-12-29T09:32:42;24.17;;;21.70;;
787;SDS011;16074;42.708;23.312;2022-12-29T09:35:20;24.03;;;21.53;;
787;SDS011;16074;42.708;23.312;2022-12-29T09:37:49;28.70;;;23.50;;
787;SDS011;16074;42.708;23.312;2022-12-29T09:40:22;23.97;;;21.40;;
787;SDS011;16074;42.708;23.312;2022-12-29T09:45:49;25.57;;;20.63;;
787;SDS011;16074;42.708;23.312;2022-12-29T09:48:29;22.30;;;19.70;;
787;SDS011;16074;42.708;23.312;2022-12-29T09:51:03;20.63;;;18.50;;
787;SDS011;16074;42.708;23.312;2022-12-29T09:53:39;19.63;;;17.30;;
787;SDS011;16074;42.708;23.312;2022-12-29T09:56:13;23.67;;;18.73;;
787;SDS011;16074;42.708;23.312;2022-12-29T09:58:45;21.70;;;18.90;;
787;SDS011;16074;42.708;23.312;2022-12-29T10:01:22;23.53;;;18.93;;
787;SDS011;16074;42.708;23.312;2022-12-29T10:03:58;29.43;;;22.73;;
787;SDS011;16074;42.708;23.312;2022-12-29T10:06:31;20.53;;;17.87;;
787;SDS011;16074;42.708;23.312;2022-12-29T10:09:29;30.83;;;23.07;;
787;SDS011;16074;42.708;23.312;2022-12-29T10:12:04;21.33;;;18.87;;
787;SDS011;16074;42.708;23.312;2022-12-29T10:14:49;25.90;;;19.30;;
787;SDS011;16074;42.708;23.312;2022-12-29T10:17:27;19.53;;;17.10;;
787;SDS011;16074;42.708;23.312;2022-12-29T10:22:59;17.70;;;15.93;;
787;SDS011;16074;42.708;23.312;2022-12-29T10:25:39;19.63;;;17.30;;
787;SDS011;16074;42.708;23.312;2022-12-29T10:28:15;17.77;;;15.73;;
787;SDS011;16074;42.708;23.312;2022-12-29T10:30:48;19.87;;;16.60;;
787;SDS011;16074;42.708;23.312;2022-12-29T10:33:19;18.00;;;16.17;;
787;SDS011;16074;42.708;23.312;2022-12-29T10:35:52;18.37;;;15.27;;
787;SDS011;16074;42.708;23.312;2022-12-29T10:38:22;19.80;;;16.67;;
787;SDS011;16074;42.708;23.312;2022-12-29T10:40:57;22.77;;;18.20;;
787;SDS011;16074;42.708;23.312;2022-12-29T10:43:28;19.03;;;17.00;;
787;SDS011;16074;42.708;23.312;2022-12-29T10:46:00;18.70;;;16.80;;
787;SDS011;16074;42.708;23.312;2022-12-29T10:48:33;19.03;;;17.03;;
787;SDS011;16074;42.708;23.312;2022-12-29T10:51:04;17.40;;;15.60;;
787;SDS011;16074;42.708;23.312;2022-12-29T10:53:37;20.43;;;17.10;;
787;SDS011;16074;42.708;23.312;2022-12-29T10:56:13;17.83;;;16.03;;
787;SDS011;16074;42.708;23.312;2022-12-29T10:58:48;21.80;;;17.40;;
787;SDS011;16074;42.708;23.312;2022-12-29T11:01:19;18.97;;;17.13;;
787;SDS011;16074;42.708;23.312;2022-12-29T11:03:49;21.03;;;16.90;;
787;SDS011;16074;42.708;23.312;2022-12-29T11:06:27;21.10;;;17.40;;
787;SDS011;16074;42.708;23.312;2022-12-29T11:08:57;21.13;;;17.60;;
787;SDS011;16074;42.708;23.312;2022-12-29T11:11:33;22.20;;;18.70;;
787;SDS011;16074;42.708;23.312;2022-12-29T11:14:08;21.53;;;18.87;;
787;SDS011;16074;42.708;23.312;2022-12-29T11:16:40;18.53;;;16.53;;
787;SDS011;16074;42.708;23.312;2022-12-29T11:19:20;23.73;;;18.10;;
787;SDS011;16074;42.708;23.312;2022-12-29T11:21:52;21.17;;;16.03;;
787;SDS011;16074;42.708;23.312;2022-12-29T11:24:22;18.80;;;16.80;;
787;SDS011;16074;42.708;23.312;2022-12-29T11:26:53;21.10;;;17.73;;
787;SDS011;16074;42.708;23.312;2022-12-29T11:29:24;19.20;;;15.90;;
787;SDS011;16074;42.708;23.312;2022-12-29T11:31:54;23.10;;;16.33;;
787;SDS011;16074;42.708;23.312;2022-12-29T11:34:26;17.77;;;15.93;;
787;SDS011;16074;42.708;23.312;2022-12-29T11:37:02;22.27;;;16.50;;
787;SDS011;16074;42.708;23.312;2022-12-29T11:39:34;21.67;;;16.97;;
787;SDS011;16074;42.708;23.312;2022-12-29T11:42:12;20.07;;;16.97;;
787;SDS011;16074;42.708;23.312;2022-12-29T11:44:44;21.07;;;16.90;;
787;SDS011;16074;42.708;23.312;2022-12-29T11:47:20;19.83;;;17.73;;
787;SDS011;16074;42.708;23.312;2022-12-29T11:49:54;21.77;;;16.53;;
787;SDS011;16074;42.708;23.312;2022-12-29T11:52:26;21.57;;;18.50;;
787;SDS011;16074;42.708;23.312;2022-12-29T11:54:57;18.63;;;16.67;;
787;SDS011;16074;42.708;23.312;2022-12-29T11:57:27;18.43;;;16.53;;
787;SDS011;16074;42.708;23.312;2022-12-29T11:59:56;20.67;;;16.40;;
787;SDS011;16074;42.708;23.312;2022-12-29T12:02:42;23.10;;;17.20;;
787;SDS011;16074;42.708;23.312;2022-12-29T12:05:19;18.50;;;16.67;;
787;SDS011;16074;42.708;23.312;2022-12-29T12:07:56;19.30;;;17.07;;
787;SDS011;16074;42.708;23.312;2022-12-29T12:10:29;18.47;;;16.47;;
787;SDS011;16074;42.708;23.312;2022-12-29T12:13:07;23.17;;;16.90;;
787;SDS011;16074;42.708;23.312;2022-12-29T12:15:44;18.77;;;16.70;;
787;SDS011;16074;42.708;23.312;2022-12-29T12:18:27;19.47;;;16.77;;
787;SDS011;16074;42.708;23.312;2022-12-29T12:21:04;19.40;;;17.30;;
787;SDS011;16074;42.708;23.312;2022-12-29T12:23:40;20.17;;;16.20;;
787;SDS011;16074;42.708;23.312;2022-12-29T12:26:26;18.93;;;16.90;;
787;SDS011;16074;42.708;23.312;2022-12-29T12:28:59;18.03;;;16.20;;
787;SDS011;16074;42.708;23.312;2022-12-29T12:31:40;22.53;;;17.30;;
787;SDS011;16074;42.708;23.312;2022-12-29T12:34:15;20.00;;;16.70;;
787;SDS011;16074;42.708;23.312;2022-12-29T12:37:02;23.80;;;15.70;;
787;SDS011;16074;42.708;23.312;2022-12-29T12:39:47;21.40;;;17.20;;
787;SDS011;16074;42.708;23.312;2022-12-29T12:42:31;19.60;;;15.73;;
787;SDS011;16074;42.708;23.312;2022-12-29T12:45:17;22.93;;;18.80;;
787;SDS011;16074;42.708;23.312;2022-12-29T12:48:02;20.90;;;18.70;;
787;SDS011;16074;42.708;23.312;2022-12-29T12:50:47;21.53;;;18.90;;
787;SDS011;16074;42.708;23.312;2022-12-29T12:53:26;20.07;;;17.87;;
787;SDS011;16074;42.708;23.312;2022-12-29T12:56:11;23.00;;;19.10;;
787;SDS011;16074;42.708;23.312;2022-12-29T12:58:51;20.87;;;18.53;;
787;SDS011;16074;42.708;23.312;2022-12-29T13:01:37;22.20;;;18.60;;
787;SDS011;16074;42.708;23.312;2022-12-29T13:04:16;22.90;;;19.40;;
787;SDS011;16074;42.708;23.312;2022-12-29T13:06:56;20.80;;;17.80;;
787;SDS011;16074;42.708;23.312;2022-12-29T13:09:36;21.77;;;17.83;;
787;SDS011;16074;42.708;23.312;2022-12-29T13:12:21;24.33;;;18.53;;
787;SDS011;16074;42.708;23.312;2022-12-29T13:15:02;38.50;;;29.90;;
787;SDS011;16074;42.708;23.312;2022-12-29T13:17:40;62.53;;;44.20;;
787;SDS011;16074;42.708;23.312;2022-12-29T13:20:18;26.47;;;22.57;;
787;SDS011;16074;42.708;23.312;2022-12-29T13:22:54;36.43;;;25.97;;
787;SDS011;16074;42.708;23.312;2022-12-29T13:25:31;27.50;;;22.13;;
787;SDS011;16074;42.708;23.312;2022-12-29T13:28:09;22.73;;;18.50;;
787;SDS011;16074;42.708;23.312;2022-12-29T13:30:44;22.40;;;19.50;;
787;SDS011;16074;42.708;23.312;2022-12-29T13:33:22;20.83;;;18.37;;
787;SDS011;16074;42.708;23.312;2022-12-29T13:35:59;21.73;;;19.23;;
787;SDS011;16074;42.708;23.312;2022-12-29T13:38:33;21.37;;;18.20;;
787;SDS011;16074;42.708;23.312;2022-12-29T13:41:06;21.03;;;18.80;;
787;SDS011;16074;42.708;23.312;2022-12-29T13:43:38;22.30;;;17.37;;
787;SDS011;16074;42.708;23.312;2022-12-29T13:46:11;20.77;;;18.67;;
787;SDS011;16074;42.708;23.312;2022-12-29T13:48:43;21.87;;;18.50;;
787;SDS011;16074;42.708;23.312;2022-12-29T13:51:16;21.03;;;18.00;;
787;SDS011;16074;42.708;23.312;2022-12-29T13:54:11;21.73;;;18.37;;
787;SDS011;16074;42.708;23.312;2022-12-29T13:56:47;23.70;;;18.07;;
787;SDS011;16074;42.708;23.312;2022-12-29T13:59:23;22.77;;;18.75;;
787;SDS011;16074;42.708;23.312;2022-12-29T14:02:09;24.83;;;19.03;;
787;SDS011;16074;42.708;23.312;2022-12-29T14:04:56;22.73;;;18.43;;
787;SDS011;16074;42.708;23.312;2022-12-29T14:07:27;22.55;;;19.35;;
787;SDS011;16074;42.708;23.312;2022-12-29T14:09:56;24.23;;;19.00;;
787;SDS011;16074;42.708;23.312;2022-12-29T14:12:28;23.73;;;19.00;;
787;SDS011;16074;42.708;23.312;2022-12-29T14:15:04;23.08;;;20.13;;
787;SDS011;16074;42.708;23.312;2022-12-29T14:17:44;24.52;;;20.40;;
787;SDS011;16074;42.708;23.312;2022-12-29T14:20:30;24.60;;;18.65;;
787;SDS011;16074;42.708;23.312;2022-12-29T14:23:00;22.10;;;19.02;;
787;SDS011;16074;42.708;23.312;2022-12-29T14:25:52;21.85;;;19.50;;
787;SDS011;16074;42.708;23.312;2022-12-29T14:28:26;23.67;;;18.67;;
787;SDS011;16074;42.708;23.312;2022-12-29T14:30:57;21.73;;;19.48;;
787;SDS011;16074;42.708;23.312;2022-12-29T14:33:28;22.90;;;20.25;;
787;SDS011;16074;42.708;23.312;2022-12-29T14:36:18;24.95;;;19.65;;
787;SDS011;16074;42.708;23.312;2022-12-29T14:38:48;21.95;;;18.92;;
787;SDS011;16074;42.708;23.312;2022-12-29T14:41:27;23.52;;;19.13;;
787;SDS011;16074;42.708;23.312;2022-12-29T14:43:59;36.45;;;21.48;;
787;SDS011;16074;42.708;23.312;2022-12-29T14:46:48;23.88;;;20.13;;
787;SDS011;16074;42.708;23.312;2022-12-29T14:49:23;27.98;;;19.02;;
787;SDS011;16074;42.708;23.312;2022-12-29T14:51:53;34.30;;;28.05;;
787;SDS011;16074;42.708;23.312;2022-12-29T14:57:25;30.50;;;21.48;;
787;SDS011;16074;42.708;23.312;2022-12-29T14:59:58;31.83;;;24.27;;
787;SDS011;16074;42.708;23.312;2022-12-29T15:02:34;39.63;;;25.10;;
787;SDS011;16074;42.708;23.312;2022-12-29T15:05:19;33.15;;;25.77;;
787;SDS011;16074;42.708;23.312;2022-12-29T15:07:55;27.77;;;21.35;;
787;SDS011;16074;42.708;23.312;2022-12-29T15:10:24;26.77;;;21.70;;
787;SDS011;16074;42.708;23.312;2022-12-29T15:13:03;33.25;;;24.52;;
787;SDS011;16074;42.708;23.312;2022-12-29T15:15:36;39.08;;;24.92;;
787;SDS011;16074;42.708;23.312;2022-12-29T15:18:14;35.10;;;25.63;;
787;SDS011;16074;42.708;23.312;2022-12-29T15:20:50;35.92;;;25.70;;
787;SDS011;16074;42.708;23.312;2022-12-29T15:23:21;35.58;;;26.40;;
787;SDS011;16074;42.708;23.312;2022-12-29T15:25:50;31.50;;;22.67;;
787;SDS011;16074;42.708;23.312;2022-12-29T15:28:23;34.92;;;24.73;;
787;SDS011;16074;42.708;23.312;2022-12-29T15:30:52;30.95;;;25.98;;